sensor_id;sensor_type;location;lat;lon;timestamp;temperature;humidity
20366;DHT22;10341;49.894;8.822;2024-01-16T00:03:38;0.20;99.90
20366;DHT22;10341;49.894;8.822;2024-01-16T00:08:57;0.00;99.90
20366;DHT22;10341;49.894;8.822;2024-01-16T00:14:16;-0.10;99.90
20366;DHT22;10341;49.894;8.822;2024-01-16T00:19:36;-0.10;99.90
20366;DHT22;10341;49.894;8.822;2024-01-16T00:24:55;-0.20;99.90
20366;DHT22;10341;49.894;8.822;2024-01-16T00:30:15;-0.20;99.90
20366;DHT22;10341;49.894;8.822;2024-01-16T00:35:34;-0.10;99.90
20366;DHT22;10341;49.894;8.822;2024-01-16T00:40:53;-0.20;99.90
20366;DHT22;10341;49.894;8.822;2024-01-16T00:46:13;-0.20;99.90
20366;DHT22;10341;49.894;8.822;2024-01-16T00:51:32;-0.20;99.90
20366;DHT22;10341;49.894;8.822;2024-01-16T00:56:51;-0.20;99.90
20366;DHT22;10341;49.894;8.822;2024-01-16T01:02:15;-0.30;99.90
20366;DHT22;10341;49.894;8.822;2024-01-16T01:07:34;-0.20;99.90
20366;DHT22;10341;49.894;8.822;2024-01-16T01:12:53;-0.20;99.90
20366;DHT22;10341;49.894;8.822;2024-01-16T01:18:13;-0.20;99.90
20366;DHT22;10341;49.894;8.822;2024-01-16T01:23:32;-0.10;99.90
20366;DHT22;10341;49.894;8.822;2024-01-16T01:28:51;-0.10;99.90
20366;DHT22;10341;49.894;8.822;2024-01-16T01:34:11;-0.20;99.90
20366;DHT22;10341;49.894;8.822;2024-01-16T01:39:30;-0.20;99.90
20366;DHT22;10341;49.894;8.822;2024-01-16T01:44:49;-0.20;99.90
20366;DHT22;10341;49.894;8.822;2024-01-16T01:50:09;-0.30;99.90
20366;DHT22;10341;49.894;8.822;2024-01-16T01:55:29;-0.30;99.90
20366;DHT22;10341;49.894;8.822;2024-01-16T02:00:48;-0.30;99.90
20366;DHT22;10341;49.894;8.822;2024-01-16T02:06:08;-0.30;99.90
20366;DHT22;10341;49.894;8.822;2024-01-16T02:11:28;-0.40;99.90
20366;DHT22;10341;49.894;8.822;2024-01-16T02:16:47;-0.40;99.90
20366;DHT22;10341;49.894;8.822;2024-01-16T02:22:09;-0.40;99.90
20366;DHT22;10341;49.894;8.822;2024-01-16T02:27:30;-0.40;99.90
20366;DHT22;10341;49.894;8.822;2024-01-16T02:32:49;-0.40;99.90
20366;DHT22;10341;49.894;8.822;2024-01-16T02:38:08;-0.40;99.90
20366;DHT22;10341;49.894;8.822;2024-01-16T02:43:27;-0.40;99.90
20366;DHT22;10341;49.894;8.822;2024-01-16T02:48:47;-0.40;99.90
20366;DHT22;10341;49.894;8.822;2024-01-16T02:54:07;-0.30;99.90
20366;DHT22;10341;49.894;8.822;2024-01-16T02:59:27;-0.30;99.90
20366;DHT22;10341;49.894;8.822;2024-01-16T03:04:49;-0.30;99.90
20366;DHT22;10341;49.894;8.822;2024-01-16T03:10:09;-0.30;99.90
20366;DHT22;10341;49.894;8.822;2024-01-16T03:15:28;-0.30;99.90
20366;DHT22;10341;49.894;8.822;2024-01-16T03:20:50;-0.30;99.90
20366;DHT22;10341;49.894;8.822;2024-01-16T03:26:16;-0.20;99.90
20366;DHT22;10341;49.894;8.822;2024-01-16T03:31:35;-0.10;99.90
20366;DHT22;10341;49.894;8.822;2024-01-16T03:36:55;-0.10;99.90
20366;DHT22;10341;49.894;8.822;2024-01-16T03:42:14;-0.10;99.90
20366;DHT22;10341;49.894;8.822;2024-01-16T03:47:33;-0.10;99.90
20366;DHT22;10341;49.894;8.822;2024-01-16T03:52:53;-0.10;99.90
20366;DHT22;10341;49.894;8.822;2024-01-16T03:58:12;-0.10;99.90
20366;DHT22;10341;49.894;8.822;2024-01-16T04:03:31;-0.20;99.90
20366;DHT22;10341;49.894;8.822;2024-01-16T04:08:50;-0.10;99.90
20366;DHT22;10341;49.894;8.822;2024-01-16T04:14:09;-0.10;99.90
20366;DHT22;10341;49.894;8.822;2024-01-16T04:19:28;-0.10;99.90
20366;DHT22;10341;49.894;8.822;2024-01-16T04:24:47;-0.10;99.90
20366;DHT22;10341;49.894;8.822;2024-01-16T04:30:08;0.00;99.90
20366;DHT22;10341;49.894;8.822;2024-01-16T04:35:27;-0.10;99.90
20366;DHT22;10341;49.894;8.822;2024-01-16T04:40:46;-0.10;99.90
20366;DHT22;10341;49.894;8.822;2024-01-16T04:46:06;-0.20;99.90
20366;DHT22;10341;49.894;8.822;2024-01-16T04:51:25;-0.20;99.90
20366;DHT22;10341;49.894;8.822;2024-01-16T04:56:44;-0.20;99.90
20366;DHT22;10341;49.894;8.822;2024-01-16T05:02:04;-0.20;99.90
20366;DHT22;10341;49.894;8.822;2024-01-16T05:07:24;-0.30;99.90
20366;DHT22;10341;49.894;8.822;2024-01-16T05:12:43;-0.30;99.90
20366;DHT22;10341;49.894;8.822;2024-01-16T05:18:03;-0.30;99.90
20366;DHT22;10341;49.894;8.822;2024-01-16T05:23:22;-0.30;99.90
20366;DHT22;10341;49.894;8.822;2024-01-16T05:28:42;-0.30;99.90
20366;DHT22;10341;49.894;8.822;2024-01-16T05:34:01;-0.30;99.90
20366;DHT22;10341;49.894;8.822;2024-01-16T05:39:20;-0.30;99.90
20366;DHT22;10341;49.894;8.822;2024-01-16T05:44:40;-0.30;99.90
20366;DHT22;10341;49.894;8.822;2024-01-16T05:49:59;-0.30;99.90
20366;DHT22;10341;49.894;8.822;2024-01-16T05:55:20;-0.30;99.90
20366;DHT22;10341;49.894;8.822;2024-01-16T06:00:40;-0.30;99.90
20366;DHT22;10341;49.894;8.822;2024-01-16T06:06:00;-0.30;99.90
20366;DHT22;10341;49.894;8.822;2024-01-16T06:11:29;-0.40;99.90
20366;DHT22;10341;49.894;8.822;2024-01-16T06:16:48;-0.40;99.90
20366;DHT22;10341;49.894;8.822;2024-01-16T06:22:08;-0.50;99.90
20366;DHT22;10341;49.894;8.822;2024-01-16T06:27:27;-0.50;99.90
20366;DHT22;10341;49.894;8.822;2024-01-16T06:32:47;-0.60;99.90
20366;DHT22;10341;49.894;8.822;2024-01-16T06:38:07;-0.70;99.90
20366;DHT22;10341;49.894;8.822;2024-01-16T06:43:27;-0.80;99.90
20366;DHT22;10341;49.894;8.822;2024-01-16T06:48:46;-0.90;99.90
20366;DHT22;10341;49.894;8.822;2024-01-16T06:54:06;-0.90;99.90
20366;DHT22;10341;49.894;8.822;2024-01-16T06:59:25;-0.90;99.90
20366;DHT22;10341;49.894;8.822;2024-01-16T07:04:45;-0.90;99.90
20366;DHT22;10341;49.894;8.822;2024-01-16T07:10:04;-0.90;99.90
20366;DHT22;10341;49.894;8.822;2024-01-16T07:15:27;-0.90;99.90
20366;DHT22;10341;49.894;8.822;2024-01-16T07:20:47;-0.80;99.90
20366;DHT22;10341;49.894;8.822;2024-01-16T07:26:06;-0.80;99.90
20366;DHT22;10341;49.894;8.822;2024-01-16T07:31:26;-0.90;99.90
20366;DHT22;10341;49.894;8.822;2024-01-16T07:36:46;-0.90;99.90
20366;DHT22;10341;49.894;8.822;2024-01-16T07:42:05;-0.90;99.90
20366;DHT22;10341;49.894;8.822;2024-01-16T07:47:25;-0.80;99.90
20366;DHT22;10341;49.894;8.822;2024-01-16T07:52:44;-0.80;99.90
20366;DHT22;10341;49.894;8.822;2024-01-16T07:58:04;-0.70;99.90
20366;DHT22;10341;49.894;8.822;2024-01-16T08:03:23;-0.60;99.90
20366;DHT22;10341;49.894;8.822;2024-01-16T08:08:43;-0.10;99.90
20366;DHT22;10341;49.894;8.822;2024-01-16T08:14:02;0.10;99.90
20366;DHT22;10341;49.894;8.822;2024-01-16T08:19:22;0.10;99.90
20366;DHT22;10341;49.894;8.822;2024-01-16T08:24:41;0.10;99.90
20366;DHT22;10341;49.894;8.822;2024-01-16T08:30:01;0.20;99.90
20366;DHT22;10341;49.894;8.822;2024-01-16T08:35:20;0.30;99.90
20366;DHT22;10341;49.894;8.822;2024-01-16T08:40:39;0.40;99.90
20366;DHT22;10341;49.894;8.822;2024-01-16T08:45:59;0.50;99.90
20366;DHT22;10341;49.894;8.822;2024-01-16T08:51:18;0.50;99.90
20366;DHT22;10341;49.894;8.822;2024-01-16T08:56:38;0.70;99.90
20366;DHT22;10341;49.894;8.822;2024-01-16T09:01:57;1.00;99.90
20366;DHT22;10341;49.894;8.822;2024-01-16T09:07:16;1.30;99.90
20366;DHT22;10341;49.894;8.822;2024-01-16T09:12:35;1.70;99.90
20366;DHT22;10341;49.894;8.822;2024-01-16T09:17:55;1.80;99.90
20366;DHT22;10341;49.894;8.822;2024-01-16T09:23:14;1.70;99.90
20366;DHT22;10341;49.894;8.822;2024-01-16T09:28:33;1.80;99.90
20366;DHT22;10341;49.894;8.822;2024-01-16T09:33:53;1.90;99.90
20366;DHT22;10341;49.894;8.822;2024-01-16T09:39:12;1.80;99.90
20366;DHT22;10341;49.894;8.822;2024-01-16T09:44:33;1.80;99.90
20366;DHT22;10341;49.894;8.822;2024-01-16T09:49:54;1.80;99.90
20366;DHT22;10341;49.894;8.822;2024-01-16T09:55:17;1.70;99.90
20366;DHT22;10341;49.894;8.822;2024-01-16T10:00:37;1.80;99.90
20366;DHT22;10341;49.894;8.822;2024-01-16T10:05:56;1.90;99.90
20366;DHT22;10341;49.894;8.822;2024-01-16T10:11:19;1.90;99.90
20366;DHT22;10341;49.894;8.822;2024-01-16T10:22:23;2.50;99.90
20366;DHT22;10341;49.894;8.822;2024-01-16T10:27:44;2.70;99.90
20366;DHT22;10341;49.894;8.822;2024-01-16T10:33:12;3.00;99.90
20366;DHT22;10341;49.894;8.822;2024-01-16T10:38:32;3.10;99.90
20366;DHT22;10341;49.894;8.822;2024-01-16T10:44:05;3.20;99.90
20366;DHT22;10341;49.894;8.822;2024-01-16T10:49:26;3.40;99.90
20366;DHT22;10341;49.894;8.822;2024-01-16T10:54:46;3.20;99.90
20366;DHT22;10341;49.894;8.822;2024-01-16T11:00:09;3.30;99.90
20366;DHT22;10341;49.894;8.822;2024-01-16T11:05:32;3.50;99.90
20366;DHT22;10341;49.894;8.822;2024-01-16T11:10:55;3.50;99.90
20366;DHT22;10341;49.894;8.822;2024-01-16T11:16:14;3.40;99.90
20366;DHT22;10341;49.894;8.822;2024-01-16T11:21:34;3.30;99.90
20366;DHT22;10341;49.894;8.822;2024-01-16T11:26:55;3.40;99.90
20366;DHT22;10341;49.894;8.822;2024-01-16T11:32:32;3.30;99.90
20366;DHT22;10341;49.894;8.822;2024-01-16T11:37:51;3.60;99.90
20366;DHT22;10341;49.894;8.822;2024-01-16T11:49:02;5.20;99.90
20366;DHT22;10341;49.894;8.822;2024-01-16T11:54:22;6.00;99.90
20366;DHT22;10341;49.894;8.822;2024-01-16T12:05:12;10.10;95.30
20366;DHT22;10341;49.894;8.822;2024-01-16T12:10:32;11.60;92.00
20366;DHT22;10341;49.894;8.822;2024-01-16T12:16:01;11.00;90.10
20366;DHT22;10341;49.894;8.822;2024-01-16T12:21:22;8.70;93.10
20366;DHT22;10341;49.894;8.822;2024-01-16T12:26:42;7.80;94.20
20366;DHT22;10341;49.894;8.822;2024-01-16T12:32:11;7.40;96.70
20366;DHT22;10341;49.894;8.822;2024-01-16T12:37:31;6.70;97.20
20366;DHT22;10341;49.894;8.822;2024-01-16T12:42:51;6.30;98.40
20366;DHT22;10341;49.894;8.822;2024-01-16T12:48:11;5.90;99.50
20366;DHT22;10341;49.894;8.822;2024-01-16T12:53:30;5.50;99.90
20366;DHT22;10341;49.894;8.822;2024-01-16T12:58:55;5.10;99.90
20366;DHT22;10341;49.894;8.822;2024-01-16T13:04:16;4.70;99.90
20366;DHT22;10341;49.894;8.822;2024-01-16T13:09:35;4.70;99.90
20366;DHT22;10341;49.894;8.822;2024-01-16T13:14:56;4.90;99.90
20366;DHT22;10341;49.894;8.822;2024-01-16T13:20:15;5.10;99.90
20366;DHT22;10341;49.894;8.822;2024-01-16T13:25:34;5.00;99.90
20366;DHT22;10341;49.894;8.822;2024-01-16T13:30:55;5.20;99.90
20366;DHT22;10341;49.894;8.822;2024-01-16T13:36:14;5.20;99.90
20366;DHT22;10341;49.894;8.822;2024-01-16T13:41:34;5.20;99.90
20366;DHT22;10341;49.894;8.822;2024-01-16T13:46:54;4.90;99.90
20366;DHT22;10341;49.894;8.822;2024-01-16T13:52:13;4.40;99.90
20366;DHT22;10341;49.894;8.822;2024-01-16T13:57:33;4.00;99.90
20366;DHT22;10341;49.894;8.822;2024-01-16T14:02:55;3.70;99.90
20366;DHT22;10341;49.894;8.822;2024-01-16T14:08:15;3.70;99.90
20366;DHT22;10341;49.894;8.822;2024-01-16T14:13:35;3.50;99.90
20366;DHT22;10341;49.894;8.822;2024-01-16T14:18:57;3.30;99.90
20366;DHT22;10341;49.894;8.822;2024-01-16T14:24:17;3.00;99.90
20366;DHT22;10341;49.894;8.822;2024-01-16T14:29:37;2.80;99.90
20366;DHT22;10341;49.894;8.822;2024-01-16T14:34:57;2.60;99.90
20366;DHT22;10341;49.894;8.822;2024-01-16T14:40:16;2.40;99.90
20366;DHT22;10341;49.894;8.822;2024-01-16T14:45:45;2.30;99.90
20366;DHT22;10341;49.894;8.822;2024-01-16T14:51:04;2.20;99.90
20366;DHT22;10341;49.894;8.822;2024-01-16T14:56:23;2.10;99.90
20366;DHT22;10341;49.894;8.822;2024-01-16T15:01:44;2.00;99.90
20366;DHT22;10341;49.894;8.822;2024-01-16T15:07:04;1.80;99.90
20366;DHT22;10341;49.894;8.822;2024-01-16T15:12:23;1.70;99.90
20366;DHT22;10341;49.894;8.822;2024-01-16T15:17:43;1.50;99.90
20366;DHT22;10341;49.894;8.822;2024-01-16T15:23:03;1.40;99.90
20366;DHT22;10341;49.894;8.822;2024-01-16T15:28:22;1.30;99.90
20366;DHT22;10341;49.894;8.822;2024-01-16T15:33:42;1.20;99.90
20366;DHT22;10341;49.894;8.822;2024-01-16T15:39:01;1.00;99.90
20366;DHT22;10341;49.894;8.822;2024-01-16T15:44:21;0.90;99.90
20366;DHT22;10341;49.894;8.822;2024-01-16T15:49:41;0.70;99.90
20366;DHT22;10341;49.894;8.822;2024-01-16T15:55:00;0.50;99.90
20366;DHT22;10341;49.894;8.822;2024-01-16T16:00:20;0.30;99.90
20366;DHT22;10341;49.894;8.822;2024-01-16T16:05:41;0.10;99.90
20366;DHT22;10341;49.894;8.822;2024-01-16T16:11:00;-0.20;99.90
20366;DHT22;10341;49.894;8.822;2024-01-16T16:16:20;-0.40;99.90
20366;DHT22;10341;49.894;8.822;2024-01-16T16:21:39;-0.40;99.90
20366;DHT22;10341;49.894;8.822;2024-01-16T16:26:59;-0.40;99.90
20366;DHT22;10341;49.894;8.822;2024-01-16T16:32:18;-0.50;99.90
20366;DHT22;10341;49.894;8.822;2024-01-16T16:37:38;-0.60;99.90
20366;DHT22;10341;49.894;8.822;2024-01-16T16:42:57;-0.70;99.90
20366;DHT22;10341;49.894;8.822;2024-01-16T16:48:18;-0.70;99.90
20366;DHT22;10341;49.894;8.822;2024-01-16T16:53:37;-0.80;99.90
20366;DHT22;10341;49.894;8.822;2024-01-16T16:58:58;-0.70;99.90
20366;DHT22;10341;49.894;8.822;2024-01-16T17:04:18;-0.80;99.90
20366;DHT22;10341;49.894;8.822;2024-01-16T17:09:37;-0.70;99.90
20366;DHT22;10341;49.894;8.822;2024-01-16T17:14:57;-0.70;99.90
20366;DHT22;10341;49.894;8.822;2024-01-16T17:20:17;-0.80;99.90
20366;DHT22;10341;49.894;8.822;2024-01-16T17:25:37;-0.90;99.90
20366;DHT22;10341;49.894;8.822;2024-01-16T17:31:00;-1.10;99.90
20366;DHT22;10341;49.894;8.822;2024-01-16T17:36:20;-1.10;99.90
20366;DHT22;10341;49.894;8.822;2024-01-16T17:41:40;-1.20;99.90
20366;DHT22;10341;49.894;8.822;2024-01-16T17:46:59;-1.20;99.90
20366;DHT22;10341;49.894;8.822;2024-01-16T17:52:20;-1.30;99.90
20366;DHT22;10341;49.894;8.822;2024-01-16T17:57:39;-1.40;99.90
20366;DHT22;10341;49.894;8.822;2024-01-16T18:02:59;-1.40;99.90
20366;DHT22;10341;49.894;8.822;2024-01-16T18:08:19;-1.40;99.90
20366;DHT22;10341;49.894;8.822;2024-01-16T18:13:38;-1.60;99.90
20366;DHT22;10341;49.894;8.822;2024-01-16T18:18:58;-1.60;99.90
20366;DHT22;10341;49.894;8.822;2024-01-16T18:24:17;-1.70;99.90
20366;DHT22;10341;49.894;8.822;2024-01-16T18:29:37;-1.80;99.90
20366;DHT22;10341;49.894;8.822;2024-01-16T18:34:57;-1.80;99.90
20366;DHT22;10341;49.894;8.822;2024-01-16T18:40:16;-2.10;99.90
20366;DHT22;10341;49.894;8.822;2024-01-16T18:45:36;-2.10;99.90
20366;DHT22;10341;49.894;8.822;2024-01-16T18:50:55;-2.20;99.90
20366;DHT22;10341;49.894;8.822;2024-01-16T18:56:15;-2.40;99.90
20366;DHT22;10341;49.894;8.822;2024-01-16T19:01:35;-2.40;99.90
20366;DHT22;10341;49.894;8.822;2024-01-16T19:06:56;-2.70;99.90
20366;DHT22;10341;49.894;8.822;2024-01-16T19:12:15;-2.70;99.90
20366;DHT22;10341;49.894;8.822;2024-01-16T19:17:36;-2.80;99.90
20366;DHT22;10341;49.894;8.822;2024-01-16T19:22:55;-3.00;99.90
20366;DHT22;10341;49.894;8.822;2024-01-16T19:28:15;-3.00;99.90
20366;DHT22;10341;49.894;8.822;2024-01-16T19:33:34;-3.00;99.90
20366;DHT22;10341;49.894;8.822;2024-01-16T19:38:53;-3.20;99.90
20366;DHT22;10341;49.894;8.822;2024-01-16T19:44:12;-3.40;99.90
20366;DHT22;10341;49.894;8.822;2024-01-16T19:49:32;-3.50;99.90
20366;DHT22;10341;49.894;8.822;2024-01-16T19:54:51;-3.60;99.90
20366;DHT22;10341;49.894;8.822;2024-01-16T20:00:13;-3.60;99.90
20366;DHT22;10341;49.894;8.822;2024-01-16T20:05:34;-3.70;99.90
20366;DHT22;10341;49.894;8.822;2024-01-16T20:11:01;-3.50;99.90
20366;DHT22;10341;49.894;8.822;2024-01-16T20:16:24;-3.40;99.90
20366;DHT22;10341;49.894;8.822;2024-01-16T20:21:45;-3.50;99.90
20366;DHT22;10341;49.894;8.822;2024-01-16T20:27:06;-3.70;99.90
20366;DHT22;10341;49.894;8.822;2024-01-16T20:32:26;-3.90;99.90
20366;DHT22;10341;49.894;8.822;2024-01-16T20:37:46;-4.00;99.90
20366;DHT22;10341;49.894;8.822;2024-01-16T20:43:06;-4.10;99.90
20366;DHT22;10341;49.894;8.822;2024-01-16T20:48:25;-4.30;99.90
20366;DHT22;10341;49.894;8.822;2024-01-16T20:53:45;-4.40;99.90
20366;DHT22;10341;49.894;8.822;2024-01-16T20:59:04;-4.40;99.90
20366;DHT22;10341;49.894;8.822;2024-01-16T21:04:23;-4.50;99.90
20366;DHT22;10341;49.894;8.822;2024-01-16T21:09:43;-4.60;99.90
20366;DHT22;10341;49.894;8.822;2024-01-16T21:15:03;-4.60;99.90
20366;DHT22;10341;49.894;8.822;2024-01-16T21:20:22;-4.60;99.90
20366;DHT22;10341;49.894;8.822;2024-01-16T21:25:41;-4.70;99.90
20366;DHT22;10341;49.894;8.822;2024-01-16T21:31:01;-4.40;99.90
20366;DHT22;10341;49.894;8.822;2024-01-16T21:36:21;-4.40;99.90
20366;DHT22;10341;49.894;8.822;2024-01-16T21:41:40;-4.60;99.90
20366;DHT22;10341;49.894;8.822;2024-01-16T21:47:02;-4.80;99.90
20366;DHT22;10341;49.894;8.822;2024-01-16T21:52:21;-4.90;99.90
20366;DHT22;10341;49.894;8.822;2024-01-16T21:57:41;-5.00;99.90
20366;DHT22;10341;49.894;8.822;2024-01-16T22:03:01;-5.10;99.90
20366;DHT22;10341;49.894;8.822;2024-01-16T22:08:20;-5.10;99.90
20366;DHT22;10341;49.894;8.822;2024-01-16T22:13:39;-5.20;99.90
20366;DHT22;10341;49.894;8.822;2024-01-16T22:18:58;-5.30;99.90
20366;DHT22;10341;49.894;8.822;2024-01-16T22:24:19;-5.20;99.90
20366;DHT22;10341;49.894;8.822;2024-01-16T22:29:38;-5.40;99.90
20366;DHT22;10341;49.894;8.822;2024-01-16T22:34:57;-5.40;99.90
20366;DHT22;10341;49.894;8.822;2024-01-16T22:40:18;-5.40;99.90
20366;DHT22;10341;49.894;8.822;2024-01-16T22:45:37;-5.40;99.90
20366;DHT22;10341;49.894;8.822;2024-01-16T22:50:58;-5.20;99.90
20366;DHT22;10341;49.894;8.822;2024-01-16T22:56:18;-5.10;99.90
20366;DHT22;10341;49.894;8.822;2024-01-16T23:01:37;-5.30;99.90
20366;DHT22;10341;49.894;8.822;2024-01-16T23:06:57;-5.30;99.90
20366;DHT22;10341;49.894;8.822;2024-01-16T23:12:16;-5.40;99.90
20366;DHT22;10341;49.894;8.822;2024-01-16T23:17:39;-5.20;99.90
20366;DHT22;10341;49.894;8.822;2024-01-16T23:22:58;-5.00;99.90
20366;DHT22;10341;49.894;8.822;2024-01-16T23:28:17;-5.10;99.90
20366;DHT22;10341;49.894;8.822;2024-01-16T23:33:37;-5.20;99.90
20366;DHT22;10341;49.894;8.822;2024-01-16T23:38:56;-5.30;99.90
20366;DHT22;10341;49.894;8.822;2024-01-16T23:44:17;-5.40;99.90
20366;DHT22;10341;49.894;8.822;2024-01-16T23:49:36;-5.40;99.90
20366;DHT22;10341;49.894;8.822;2024-01-16T23:54:57;-5.40;99.90
